Time;durP1;ratioP1;P1;durP2;ratioP2;P2;SDS_P1;SDS_P2;PMS_P1;PMS_P2;Temp;Humidity;BMP_temperature;BMP_pressure;BME280_temperature;BME280_humidity;BME280_pressure;Samples;Min_cycle;Max_cycle;Signal;HPM_P1;HPM_P2
2023/02/14 00:02:18;;;;;;;0.10;0.10;;;;;;;5.84;69.05;103573.56;5014542;28;20030;-83
2023/02/14 00:04:46;;;;;;;0.10;0.10;;;;;;;5.82;68.97;103570.88;5015486;28;20037;-83
2023/02/14 00:07:13;;;;;;;0.10;0.10;;;;;;;5.82;68.96;103576.16;5016653;28;20050;-83
2023/02/14 00:09:39;;;;;;;0.10;0.10;;;;;;;5.81;68.90;103583.97;5024400;28;20029;-85
2023/02/14 00:12:06;;;;;;;2.63;0.70;;;;;;;5.79;68.90;103581.25;5014942;28;20374;-86
2023/02/14 00:15:26;;;;;;;0.47;0.47;;;;;;;5.77;68.89;103575.06;5019587;28;20033;-84
2023/02/14 00:17:18;;;;;;;0.10;0.10;;;;;;;5.76;69.27;103575.88;5031553;28;20045;-82
2023/02/14 00:19:44;;;;;;;0.10;0.10;;;;;;;5.75;68.75;103573.19;5036625;28;20125;-84
2023/02/14 00:22:10;;;;;;;1.73;1.08;;;;;;;5.72;68.81;103566.06;5029594;28;20481;-83
2023/02/14 00:24:37;;;;;;;0.28;0.28;;;;;;;5.69;68.96;103567.66;5024099;28;20148;-85
2023/02/14 00:27:03;;;;;;;0.50;0.50;;;;;;;5.67;68.88;103570.22;5010216;28;20048;-83
2023/02/14 00:29:31;;;;;;;1.13;0.57;;;;;;;5.65;69.04;103562.25;5011740;28;20295;-84
2023/02/14 00:31:57;;;;;;;0.30;0.30;;;;;;;5.62;69.17;103558.56;5011817;28;20038;-84
2023/02/14 00:34:24;;;;;;;0.45;0.45;;;;;;;5.57;69.23;103558.41;5012051;28;20037;-83
2023/02/14 00:36:50;;;;;;;0.10;0.10;;;;;;;5.55;69.30;103557.41;5004024;28;20034;-82
2023/02/14 00:39:17;;;;;;;0.10;0.10;;;;;;;5.53;69.42;103552.91;5012392;28;20480;-84
2023/02/14 00:41:44;;;;;;;0.20;0.20;;;;;;;5.50;69.58;103551.94;5011170;28;20029;-83
2023/02/14 00:44:11;;;;;;;0.28;0.28;;;;;;;5.50;69.38;103554.56;5010986;28;20117;-84
2023/02/14 00:46:38;;;;;;;0.10;0.10;;;;;;;5.48;69.39;103547.44;5010299;28;20060;-83
2023/02/14 00:49:04;;;;;;;0.10;0.10;;;;;;;5.48;69.72;103553.63;5015286;28;20464;-85
2023/02/14 00:51:31;;;;;;;0.20;0.20;;;;;;;5.49;69.56;103547.50;5016755;28;20038;-84
2023/02/14 00:53:57;;;;;;;0.10;0.10;;;;;;;5.50;69.47;103545.78;5021578;28;20038;-85
2023/02/14 00:56:23;;;;;;;3.10;0.85;;;;;;;5.50;69.44;103536.16;5009902;28;20401;-84
2023/02/14 00:58:49;;;;;;;0.10;0.10;;;;;;;5.50;69.47;103540.53;5016537;28;20044;-83
2023/02/14 01:01:17;;;;;;;0.20;0.20;;;;;;;5.47;69.26;103530.78;5014278;28;20394;-84
2023/02/14 01:03:43;;;;;;;0.20;0.20;;;;;;;5.46;69.12;103539.50;5019851;28;20445;-85
2023/02/14 01:06:09;;;;;;;0.10;0.10;;;;;;;5.44;69.53;103535.88;5018984;28;20117;-83
2023/02/14 01:08:35;;;;;;;0.10;0.10;;;;;;;5.42;69.64;103540.19;5014075;28;20043;-82
2023/02/14 01:11:20;;;;;;;0.10;0.10;;;;;;;5.44;69.37;103541.16;5020382;28;20026;-83
2023/02/14 01:13:48;;;;;;;0.30;0.30;;;;;;;5.41;69.21;103538.41;5019567;28;20029;-82
2023/02/14 01:16:18;;;;;;;0.10;0.10;;;;;;;5.44;68.70;103538.50;5017185;28;20045;-85
2023/02/14 01:18:45;;;;;;;0.13;0.13;;;;;;;5.45;68.68;103536.81;5012039;28;20113;-81
2023/02/14 01:23:49;;;;;;;0.20;0.20;;;;;;;5.40;69.11;103527.81;5107656;27;20132;-83
2023/02/14 01:26:16;;;;;;;0.30;0.30;;;;;;;5.35;69.28;103528.50;5113741;28;20008;-80
2023/02/14 01:28:44;;;;;;;0.17;0.17;;;;;;;5.33;69.22;103531.88;5113188;28;20032;-81
2023/02/14 01:31:17;;;;;;;0.10;0.10;;;;;;;5.31;69.23;103528.31;5106550;28;20043;-83
2023/02/14 01:33:45;;;;;;;0.15;0.15;;;;;;;5.30;68.64;103531.75;5086931;28;20096;-84
2023/02/14 01:36:19;;;;;;;0.10;0.10;;;;;;;5.30;69.06;103529.13;5095082;28;20048;-83
2023/02/14 01:38:45;;;;;;;0.10;0.10;;;;;;;5.26;69.07;103525.47;5089280;28;20046;-84
2023/02/14 01:41:12;;;;;;;0.13;0.13;;;;;;;5.23;69.00;103530.56;5093235;28;20089;-82
2023/02/14 01:44:00;;;;;;;0.20;0.20;;;;;;;5.28;69.04;103528.16;5092582;28;20024;-83
2023/02/14 01:46:29;;;;;;;0.10;0.10;;;;;;;5.21;68.63;103526.06;5094319;28;20083;-81
2023/02/14 01:49:02;;;;;;;0.20;0.20;;;;;;;5.21;68.60;103520.81;5094178;28;20074;-82
2023/02/14 01:51:29;;;;;;;0.10;0.10;;;;;;;5.17;68.53;103528.56;5106893;28;20036;-80
2023/02/14 01:53:55;;;;;;;0.10;0.10;;;;;;;5.16;68.99;103524.13;5120883;28;20012;-81
2023/02/14 01:56:33;;;;;;;0.13;0.13;;;;;;;5.17;68.99;103525.03;5110666;28;20080;-81
2023/02/14 01:59:03;;;;;;;0.20;0.20;;;;;;;5.14;69.03;103527.53;5086066;28;20025;-81
2023/02/14 02:01:30;;;;;;;0.10;0.10;;;;;;;5.11;69.12;103522.13;5089025;28;20073;-81
2023/02/14 02:04:00;;;;;;;0.10;0.10;;;;;;;5.10;69.12;103523.84;5092487;28;20495;-81
2023/02/14 02:06:30;;;;;;;0.10;0.10;;;;;;;5.09;69.23;103529.06;5082414;28;20036;-83
2023/02/14 02:11:39;;;;;;;0.10;0.10;;;;;;;5.02;69.64;103530.47;5163149;27;20401;-79
2023/02/14 02:14:10;;;;;;;0.10;0.10;;;;;;;4.98;69.01;103529.44;5158951;27;20030;-79
2023/02/14 02:25:21;;;;;;;0.20;0.20;;;;;;;4.92;69.32;103517.75;5069286;28;20921;-83
2023/02/14 02:28:27;;;;;;;0.30;0.30;;;;;;;4.93;69.54;103525.69;5070642;28;20079;-84
2023/02/14 02:31:31;;;;;;;0.20;0.20;;;;;;;4.91;69.25;103526.44;5067032;28;20491;-84
2023/02/14 02:34:17;;;;;;;0.10;0.10;;;;;;;4.86;69.47;103531.50;5064921;28;20034;-84
2023/02/14 02:37:07;;;;;;;0.10;0.10;;;;;;;4.81;69.57;103527.75;5069562;28;20037;-82
2023/02/14 02:43:00;;;;;;;0.20;0.20;;;;;;;4.79;69.20;103522.41;5099607;27;20355;-83
2023/02/14 02:46:46;;;;;;;0.20;0.20;;;;;;;4.76;69.63;103517.03;5097003;28;20044;-83
2023/02/14 02:48:38;;;;;;;0.20;0.20;;;;;;;4.74;69.66;103518.69;5087651;28;20121;-82
2023/02/14 02:54:08;;;;;;;0.20;0.20;;;;;;;4.73;69.50;103510.75;5081834;28;20036;-81
2023/02/14 02:56:44;;;;;;;0.10;0.10;;;;;;;4.73;69.23;103506.38;5089967;28;20029;-81
2023/02/14 03:04:56;;;;;;;0.30;0.30;;;;;;;4.67;70.14;103506.09;5122394;27;20404;-81
2023/02/14 03:07:39;;;;;;;0.50;0.50;;;;;;;4.72;69.97;103506.31;5120881;28;20051;-82
2023/02/14 03:10:11;;;;;;;;;;;;;;;4.86;69.36;103511.38;5101788;28;20024;-84
2023/02/14 03:23:53;;;;;;;0.10;0.10;;;;;;;4.64;69.90;103501.59;5057451;28;20586;-83
2023/02/14 03:26:33;;;;;;;0.10;0.10;;;;;;;4.63;70.00;103506.78;5027752;28;20034;-83
2023/02/14 03:32:12;;;;;;;0.53;0.53;;;;;;;4.57;70.42;103514.34;5088050;27;1181472;-78
2023/02/14 03:37:32;;;;;;;0.10;0.10;;;;;;;4.48;69.83;103502.56;5110682;27;20927;-81
2023/02/14 03:40:26;;;;;;;0.10;0.10;;;;;;;4.54;69.87;103494.09;5092933;28;20556;-79
2023/02/14 03:43:13;;;;;;;0.20;0.20;;;;;;;4.53;70.28;103487.94;5079325;28;20112;-80
2023/02/14 03:46:02;;;;;;;0.10;0.10;;;;;;;4.52;70.06;103493.13;5087697;28;20028;-80
2023/02/14 03:48:31;;;;;;;0.10;0.10;;;;;;;4.47;70.21;103498.16;5091268;28;20130;-81
2023/02/14 03:50:59;;;;;;;0.43;0.43;;;;;;;4.45;69.88;103499.81;5088556;28;20330;-80
2023/02/14 03:53:28;;;;;;;0.40;0.40;;;;;;;4.44;69.80;103492.75;5092734;28;20028;-79
2023/02/14 03:58:39;;;;;;;0.17;0.17;;;;;;;4.46;70.34;103496.38;5104792;27;1196292;-79
2023/02/14 04:01:15;;;;;;;0.30;0.30;;;;;;;4.45;69.96;103497.19;5101028;28;20040;-79
2023/02/14 04:03:42;;;;;;;0.17;0.17;;;;;;;4.41;69.97;103492.63;5095198;28;20150;-78
2023/02/14 04:06:09;;;;;;;0.40;0.40;;;;;;;4.39;70.10;103496.91;5090991;28;20033;-81
2023/02/14 04:08:35;;;;;;;0.55;0.55;;;;;;;4.37;69.82;103490.66;5092473;28;20032;-79
2023/02/14 04:11:03;;;;;;;0.10;0.10;;;;;;;4.36;70.33;103499.34;5091329;28;20163;-80
2023/02/14 04:13:30;;;;;;;0.35;0.35;;;;;;;4.35;69.99;103494.97;5089337;28;20033;-81
2023/02/14 04:15:56;;;;;;;0.10;0.10;;;;;;;4.32;69.77;103493.06;5086750;28;20029;-81
2023/02/14 04:21:08;;;;;;;0.10;0.10;;;;;;;4.28;69.73;103495.47;5083642;28;20612;-82
2023/02/14 04:23:34;;;;;;;3.17;0.82;;;;;;;4.20;69.87;103493.38;5082574;28;20028;-81
2023/02/14 04:26:02;;;;;;;0.10;0.10;;;;;;;4.20;69.84;103500.34;5087116;28;20451;-81
2023/02/14 04:28:28;;;;;;;0.47;0.47;;;;;;;4.17;69.64;103506.31;5090509;28;20111;-82
2023/02/14 04:30:54;;;;;;;0.10;0.10;;;;;;;4.16;69.94;103499.31;5097190;28;20036;-81
2023/02/14 04:33:20;;;;;;;0.15;0.15;;;;;;;4.14;69.93;103498.31;5105167;28;20016;-82
2023/02/14 04:35:48;;;;;;;0.10;0.10;;;;;;;4.07;70.03;103498.84;5104065;28;20037;-82
2023/02/14 04:38:14;;;;;;;0.10;0.10;;;;;;;4.10;69.79;103496.38;5097594;28;20028;-82
2023/02/14 04:40:40;;;;;;;0.20;0.20;;;;;;;3.99;70.16;103494.94;5093515;28;20119;-84
2023/02/14 04:43:07;;;;;;;0.10;0.10;;;;;;;4.04;69.89;103496.06;5090526;28;20024;-82
2023/02/14 04:45:33;;;;;;;4.20;2.65;;;;;;;4.01;70.32;103485.41;5086249;28;20021;-81
2023/02/14 04:47:59;;;;;;;0.57;0.57;;;;;;;4.00;70.03;103488.84;5091225;28;20039;-81
2023/02/14 04:50:25;;;;;;;0.10;0.10;;;;;;;3.99;70.14;103487.06;5088029;28;20265;-80
2023/02/14 04:52:52;;;;;;;0.10;0.10;;;;;;;3.99;70.21;103487.97;5098863;28;20054;-80
2023/02/14 04:55:18;;;;;;;0.13;0.13;;;;;;;3.98;70.48;103485.28;5107901;28;20020;-80
2023/02/14 04:57:45;;;;;;;0.10;0.10;;;;;;;3.97;70.26;103478.22;5101855;28;20036;-80
2023/02/14 05:00:11;;;;;;;0.10;0.10;;;;;;;3.96;70.10;103477.34;5087902;28;20039;-80
2023/02/14 05:02:37;;;;;;;0.20;0.20;;;;;;;3.97;70.41;103483.47;5088137;28;20056;-80
2023/02/14 05:05:04;;;;;;;0.13;0.13;;;;;;;3.97;70.07;103486.09;5090285;28;20036;-82
2023/02/14 05:07:30;;;;;;;0.20;0.20;;;;;;;3.96;70.51;103486.91;5089220;28;20037;-81
2023/02/14 05:09:56;;;;;;;0.10;0.10;;;;;;;3.97;69.90;103481.72;5073802;28;20031;-82
2023/02/14 05:12:23;;;;;;;0.15;0.15;;;;;;;4.01;70.11;103482.78;5076786;28;20032;-82
2023/02/14 05:14:49;;;;;;;0.20;0.20;;;;;;;4.04;70.47;103480.34;5076405;28;20036;-83
2023/02/14 05:17:16;;;;;;;0.10;0.10;;;;;;;4.07;70.83;103485.72;5083678;28;20031;-81
2023/02/14 05:19:42;;;;;;;0.10;0.10;;;;;;;4.08;70.36;103482.28;5083796;28;20036;-80
2023/02/14 05:22:08;;;;;;;0.10;0.10;;;;;;;4.10;70.82;103485.88;5071999;28;20024;-82
2023/02/14 05:24:34;;;;;;;0.15;0.15;;;;;;;4.11;70.50;103487.69;5078505;28;20464;-80
2023/02/14 05:27:00;;;;;;;0.20;0.20;;;;;;;4.13;70.97;103486.00;5082524;28;20015;-80
2023/02/14 05:29:27;;;;;;;0.20;0.20;;;;;;;4.16;70.46;103494.06;5080447;28;20028;-80
2023/02/14 05:31:53;;;;;;;0.10;0.10;;;;;;;4.18;70.88;103500.25;5083366;28;20036;-80
2023/02/14 05:34:19;;;;;;;0.10;0.10;;;;;;;4.20;70.65;103490.75;5077313;28;20064;-82
2023/02/14 05:36:45;;;;;;;0.10;0.10;;;;;;;4.20;70.76;103488.13;5080557;28;20054;-83
2023/02/14 05:39:13;;;;;;;0.10;0.10;;;;;;;4.21;71.17;103495.19;5081939;28;20115;-82
2023/02/14 05:41:40;;;;;;;0.20;0.20;;;;;;;4.23;70.70;103494.34;5078038;28;20032;-82
2023/02/14 05:44:06;;;;;;;0.10;0.10;;;;;;;4.21;70.57;103486.38;5073934;28;20521;-82
2023/02/14 05:46:32;;;;;;;0.10;0.10;;;;;;;4.23;70.84;103491.72;5077020;28;20029;-82
2023/02/14 05:48:58;;;;;;;0.10;0.10;;;;;;;4.21;70.57;103495.19;5072889;28;20029;-83
2023/02/14 05:51:24;;;;;;;0.17;0.17;;;;;;;4.20;70.64;103492.47;5079318;28;20041;-79
2023/02/14 05:53:50;;;;;;;0.30;0.30;;;;;;;4.21;71.09;103489.94;5092570;28;20056;-80
2023/02/14 05:56:16;;;;;;;0.20;0.20;;;;;;;4.23;70.88;103489.09;5088997;28;20043;-83
2023/02/14 05:58:43;;;;;;;0.17;0.17;;;;;;;4.24;71.17;103493.50;5080447;28;20029;-81
2023/02/14 06:01:09;;;;;;;0.73;0.73;;;;;;;4.25;71.05;103488.34;5080067;28;20058;-83
2023/02/14 06:03:35;;;;;;;0.10;0.10;;;;;;;4.25;71.25;103490.97;5078109;28;20037;-82
2023/02/14 06:06:01;;;;;;;0.20;0.20;;;;;;;4.26;70.88;103486.63;5083448;28;20046;-82
2023/02/14 06:08:27;;;;;;;0.20;0.20;;;;;;;4.25;71.45;103490.97;5078868;28;20078;-83
2023/02/14 06:10:53;;;;;;;0.10;0.10;;;;;;;4.27;71.65;103491.94;5077139;28;20039;-83
2023/02/14 06:13:19;;;;;;;0.10;0.10;;;;;;;4.25;71.52;103490.06;5085614;28;20106;-82
2023/02/14 06:15:45;;;;;;;1.67;0.57;;;;;;;4.25;71.38;103487.44;5090422;28;20083;-82
2023/02/14 06:18:11;;;;;;;0.35;0.35;;;;;;;4.24;70.83;103489.19;5086738;28;20033;-83
2023/02/14 06:20:37;;;;;;;0.10;0.10;;;;;;;4.24;70.99;103483.00;5069979;28;20078;-82
2023/02/14 06:23:04;;;;;;;0.20;0.20;;;;;;;4.23;71.44;103483.88;5073028;28;21148;-81
2023/02/14 06:25:31;;;;;;;0.10;0.10;;;;;;;4.17;70.88;103485.34;5070292;28;20032;-83
2023/02/14 06:27:58;;;;;;;0.10;0.10;;;;;;;4.14;70.98;103487.81;5072516;28;20017;-80
2023/02/14 06:30:25;;;;;;;0.20;0.20;;;;;;;4.11;70.80;103482.44;5069728;28;20137;-81
2023/02/14 06:32:52;;;;;;;0.10;0.10;;;;;;;4.10;70.87;103488.50;5071455;28;20482;-82
2023/02/14 06:35:18;;;;;;;0.20;0.20;;;;;;;4.09;70.98;103489.31;5074638;28;20032;-82
2023/02/14 06:37:44;;;;;;;0.15;0.15;;;;;;;4.06;70.95;103483.91;5074823;28;20123;-83
2023/02/14 06:40:11;;;;;;;0.13;0.13;;;;;;;4.05;71.16;103477.78;5074351;28;20035;-82
2023/02/14 06:42:38;;;;;;;0.20;0.20;;;;;;;4.06;71.14;103478.66;5072984;28;20040;-83
2023/02/14 06:45:05;;;;;;;0.20;0.20;;;;;;;4.05;71.52;103477.78;5071981;28;20344;-83
2023/02/14 06:47:31;;;;;;;0.20;0.20;;;;;;;4.03;71.99;103482.03;5071521;28;20036;-82
2023/02/14 06:49:58;;;;;;;0.20;0.20;;;;;;;4.03;71.18;103483.78;5071992;28;20060;-82
2023/02/14 06:52:25;;;;;;;0.28;0.28;;;;;;;4.01;71.30;103483.72;5072131;28;20029;-83
2023/02/14 06:54:51;;;;;;;0.10;0.10;;;;;;;4.00;71.07;103481.91;5071340;28;20032;-82
2023/02/14 06:57:17;;;;;;;8.18;1.15;;;;;;;4.02;71.60;103477.59;5070771;28;20088;-81
2023/02/14 06:59:43;;;;;;;0.10;0.10;;;;;;;4.03;71.35;103481.16;5071962;28;20029;-82
2023/02/14 07:02:10;;;;;;;0.20;0.20;;;;;;;4.02;71.57;103481.97;5069340;28;20079;-81
2023/02/14 07:04:36;;;;;;;0.10;0.10;;;;;;;3.99;71.65;103484.44;5065810;28;20096;-81
2023/02/14 07:07:03;;;;;;;0.10;0.10;;;;;;;3.97;71.77;103481.72;5071223;28;20021;-82
2023/02/14 07:09:29;;;;;;;0.25;0.25;;;;;;;3.95;71.54;103482.47;5073970;28;20040;-81
2023/02/14 07:11:55;;;;;;;0.20;0.20;;;;;;;3.95;71.59;103479.84;5068893;28;20119;-82
2023/02/14 07:14:21;;;;;;;0.20;0.20;;;;;;;3.95;71.63;103487.72;5071642;28;20029;-82
2023/02/14 07:16:47;;;;;;;0.20;0.20;;;;;;;3.95;71.39;103488.66;5075831;28;21188;-80
2023/02/14 07:19:13;;;;;;;1.00;0.68;;;;;;;3.95;71.50;103495.59;5077540;28;20016;-83
2023/02/14 07:21:40;;;;;;;0.10;0.10;;;;;;;3.97;71.53;103488.72;5078545;28;20035;-83
2023/02/14 07:24:06;;;;;;;0.10;0.10;;;;;;;3.98;71.36;103490.53;5073805;28;20037;-83
2023/02/14 07:26:32;;;;;;;0.10;0.10;;;;;;;3.96;71.53;103492.16;5075101;28;20027;-81
2023/02/14 07:28:58;;;;;;;0.10;0.10;;;;;;;3.97;71.68;103489.59;5073663;28;20036;-80
2023/02/14 07:31:24;;;;;;;0.35;0.35;;;;;;;3.97;71.65;103489.59;5078005;28;20039;-83
2023/02/14 07:33:51;;;;;;;0.10;0.10;;;;;;;4.00;71.29;103483.59;5084272;28;20032;-81
2023/02/14 07:36:18;;;;;;;0.35;0.35;;;;;;;4.00;71.37;103491.47;5084925;28;20033;-81
2023/02/14 07:38:44;;;;;;;0.28;0.28;;;;;;;3.99;71.34;103497.56;5088643;28;20051;-80
2023/02/14 07:41:10;;;;;;;0.10;0.10;;;;;;;3.99;71.71;103489.69;5081297;28;20074;-82
2023/02/14 07:43:37;;;;;;;0.20;0.20;;;;;;;3.96;71.42;103487.81;5074967;28;20038;-80
2023/02/14 07:46:04;;;;;;;0.43;0.43;;;;;;;3.98;71.67;103494.03;5073696;28;20054;-81
2023/02/14 07:48:30;;;;;;;1.00;1.00;;;;;;;4.01;71.33;103495.91;5074818;28;20028;-80
2023/02/14 07:50:56;;;;;;;0.10;0.10;;;;;;;4.04;71.17;103490.81;5072996;28;20706;-83
2023/02/14 07:53:23;;;;;;;0.25;0.25;;;;;;;4.06;71.33;103502.28;5071865;28;20430;-82
2023/02/14 07:55:51;;;;;;;0.20;0.20;;;;;;;4.08;71.74;103502.38;5070831;28;20052;-82
2023/02/14 07:58:17;;;;;;;0.10;0.10;;;;;;;4.12;71.65;103499.06;5073529;28;20033;-82
2023/02/14 08:00:45;;;;;;;0.13;0.13;;;;;;;4.15;71.46;103502.75;5066010;28;20056;-83
2023/02/14 08:03:12;;;;;;;0.57;0.57;;;;;;;4.18;71.96;103502.88;5075076;28;20028;-84
2023/02/14 08:05:38;;;;;;;0.30;0.30;;;;;;;4.21;71.76;103503.06;5074888;28;20113;-83
2023/02/14 08:08:04;;;;;;;0.10;0.10;;;;;;;4.24;71.21;103504.91;5076353;28;20436;-83
2023/02/14 08:10:30;;;;;;;0.10;0.10;;;;;;;4.27;71.41;103498.94;5075566;28;20024;-82
2023/02/14 08:12:57;;;;;;;0.30;0.30;;;;;;;4.31;71.50;103509.66;5075546;28;20056;-84
2023/02/14 08:18:10;;;;;;;0.15;0.15;;;;;;;4.40;71.45;103496.06;5076234;28;20104;-82
2023/02/14 08:20:36;;;;;;;0.43;0.43;;;;;;;4.44;71.51;103503.25;5080696;28;20025;-84
2023/02/14 08:23:02;;;;;;;0.20;0.20;;;;;;;4.48;71.74;103505.19;5068439;28;20071;-82
2023/02/14 08:25:31;;;;;;;0.20;0.20;;;;;;;4.52;71.54;103506.25;5069717;28;20043;-83
2023/02/14 08:28:00;;;;;;;11.70;1.58;;;;;;;4.57;71.45;103503.84;5075486;28;20028;-82
2023/02/14 08:30:26;;;;;;;0.10;0.10;;;;;;;4.62;71.79;103504.97;5074976;28;20098;-82
2023/02/14 08:32:53;;;;;;;1.08;0.98;;;;;;;4.67;71.52;103511.34;5067633;28;20041;-82
2023/02/14 08:35:19;;;;;;;0.57;0.57;;;;;;;4.72;71.79;103498.44;5079980;28;20160;-83
2023/02/14 08:37:45;;;;;;;0.28;0.28;;;;;;;4.81;71.78;103505.03;5090766;28;20063;-87
2023/02/14 08:40:11;;;;;;;2.38;1.45;;;;;;;4.88;71.54;103502.69;5082235;28;20055;-82
2023/02/14 08:42:37;;;;;;;0.47;0.47;;;;;;;4.94;71.37;103498.59;5073537;28;20117;-85
2023/02/14 08:45:04;;;;;;;0.57;0.35;;;;;;;4.97;71.72;103495.22;5075771;28;20056;-80
2023/02/14 08:47:37;;;;;;;0.68;0.68;;;;;;;5.06;71.75;103490.41;5078585;28;20047;-84
2023/02/14 08:50:04;;;;;;;0.22;0.22;;;;;;;5.16;71.73;103503.13;5081190;28;20142;-82
2023/02/14 08:52:30;;;;;;;0.10;0.10;;;;;;;5.25;71.77;103493.84;5073897;28;20038;-82
2023/02/14 08:54:57;;;;;;;0.45;0.45;;;;;;;5.31;71.87;103491.50;5078081;28;20024;-82
2023/02/14 08:57:23;;;;;;;1.10;1.00;;;;;;;5.39;71.67;103505.88;5078476;28;20115;-82
2023/02/14 08:59:50;;;;;;;0.28;0.28;;;;;;;5.44;71.91;103492.94;5096815;28;20028;-83
2023/02/14 09:02:16;;;;;;;2.33;2.17;;;;;;;5.50;71.98;103487.94;5088070;28;20125;-83
2023/02/14 09:04:42;;;;;;;0.57;0.57;;;;;;;5.58;71.72;103488.28;5075379;28;20036;-82
2023/02/14 09:07:08;;;;;;;0.13;0.13;;;;;;;5.65;72.13;103487.72;5075603;28;20025;-82
2023/02/14 09:09:34;;;;;;;0.90;0.90;;;;;;;5.73;72.13;103481.06;5077078;28;20082;-82
2023/02/14 09:12:04;;;;;;;1.17;1.17;;;;;;;5.84;71.93;103484.13;5074046;28;20017;-82
2023/02/14 09:14:33;;;;;;;0.20;0.20;;;;;;;5.92;72.01;103476.53;5076715;28;20078;-82
2023/02/14 09:17:04;;;;;;;0.10;0.10;;;;;;;6.01;71.89;103479.59;5075387;28;20036;-83
2023/02/14 09:19:31;;;;;;;1.23;1.23;;;;;;;6.10;72.36;103474.69;5077739;28;20039;-83
2023/02/14 09:21:57;;;;;;;1.67;1.55;;;;;;;6.22;72.20;103473.41;5077414;28;20820;-83
2023/02/14 09:24:23;;;;;;;0.10;0.10;;;;;;;6.33;72.29;103480.03;5089173;28;20047;-82
2023/02/14 09:26:49;;;;;;;1.02;1.02;;;;;;;6.46;72.13;103482.28;5087433;28;20035;-83
2023/02/14 09:29:15;;;;;;;0.47;0.45;;;;;;;6.57;72.07;103474.81;5075431;28;20024;-83
2023/02/14 09:31:41;;;;;;;1.08;1.08;;;;;;;6.69;72.10;103469.16;5074706;28;20024;-83
2023/02/14 09:34:07;;;;;;;0.85;0.85;;;;;;;6.83;72.05;103482.84;5077514;28;20028;-82
2023/02/14 09:39:19;;;;;;;0.57;0.57;;;;;;;7.10;71.94;103472.44;5074951;28;20096;-81
2023/02/14 09:42:11;;;;;;;1.70;0.90;;;;;;;7.26;72.08;103473.91;5074267;28;20044;-82
2023/02/14 09:44:58;;;;;;;0.20;0.20;;;;;;;7.45;72.25;103480.72;5086102;28;20029;-81
2023/02/14 09:47:48;;;;;;;0.68;0.68;;;;;;;7.57;72.64;103469.69;5083480;28;20026;-81
2023/02/14 09:50:22;;;;;;;0.10;0.10;;;;;;;7.62;72.60;103469.84;5090524;28;21531;-81
2023/02/14 09:52:54;;;;;;;0.40;0.40;;;;;;;7.73;72.37;103463.19;5083052;28;20032;-82
2023/02/14 09:55:20;;;;;;;0.35;0.35;;;;;;;7.82;71.54;103464.34;5083900;28;20029;-80
2023/02/14 09:58:12;;;;;;;0.95;0.95;;;;;;;8.01;71.26;103469.41;5086279;28;20063;-81
2023/02/14 10:00:45;;;;;;;1.17;0.90;;;;;;;8.05;71.25;103465.09;5077594;28;20024;-84
2023/02/14 10:05:58;;;;;;;4.10;1.20;;;;;;;8.24;71.59;103471.91;5109791;27;20382;-82
2023/02/14 10:08:42;;;;;;;0.10;0.10;;;;;;;8.33;71.37;103468.66;5099562;28;20028;-83
2023/02/14 10:11:14;;;;;;;0.93;0.93;;;;;;;8.37;70.81;103466.16;5092586;28;20058;-82
2023/02/14 10:13:47;;;;;;;2.15;2.05;;;;;;;8.48;70.91;103471.78;5092474;28;20028;-84
2023/02/14 10:16:39;;;;;;;2.92;1.17;;;;;;;8.60;69.78;103465.09;5094951;28;20008;-84
2023/02/14 10:19:27;;;;;;;1.23;1.20;;;;;;;8.78;69.64;103462.13;5108316;28;20028;-81
2023/02/14 10:22:00;;;;;;;4.75;1.40;;;;;;;8.85;69.30;103469.38;5109953;28;20159;-82
2023/02/14 10:27:41;;;;;;;0.22;0.22;;;;;;;9.11;69.21;103461.28;5071353;28;20425;-84
2023/02/14 10:30:23;;;;;;;0.52;0.52;;;;;;;9.26;68.62;103461.72;5050253;28;20033;-82
2023/02/14 10:33:16;;;;;;;0.20;0.20;;;;;;;9.29;68.95;103456.50;5052586;28;20032;-83
2023/02/14 10:35:51;;;;;;;0.50;0.50;;;;;;;9.44;69.29;103455.16;5050974;28;20369;-84
2023/02/14 10:38:50;;;;;;;1.00;0.93;;;;;;;9.61;68.51;103445.91;5050684;28;20021;-82
2023/02/14 10:41:25;;;;;;;0.10;0.10;;;;;;;9.67;68.29;103454.00;5048156;28;20037;-84
2023/02/14 10:46:41;;;;;;;0.20;0.20;;;;;;;9.91;68.06;103450.19;5066768;28;20411;-83
2023/02/14 10:52:06;;;;;;;0.70;0.70;;;;;;;10.13;67.73;103443.66;5119422;27;1179881;-82
2023/02/14 10:54:38;;;;;;;0.57;0.57;;;;;;;10.20;66.33;103445.59;5107738;28;20047;-81
2023/02/14 10:57:13;;;;;;;0.95;0.55;;;;;;;10.35;66.60;103445.03;5093546;28;20111;-81
2023/02/14 11:02:43;;;;;;;3.42;1.23;;;;;;;10.45;65.50;103434.66;5095881;27;20465;-83
2023/02/14 11:05:26;;;;;;;0.68;0.68;;;;;;;10.59;66.06;103438.53;5092143;28;20512;-82
2023/02/14 11:07:52;;;;;;;0.65;0.65;;;;;;;10.58;64.75;103434.09;5093729;28;20032;-83
2023/02/14 11:10:23;;;;;;;1.42;1.42;;;;;;;10.68;65.80;103422.81;5091791;28;20058;-83
2023/02/14 11:12:49;;;;;;;1.95;0.65;;;;;;;10.78;65.35;103425.63;5103292;28;20052;-83
2023/02/14 11:18:09;;;;;;;0.95;0.95;;;;;;;11.09;64.33;103424.50;5090274;27;1873479;-84
2023/02/14 11:20:35;;;;;;;0.22;0.22;;;;;;;11.13;64.80;103425.47;5131305;28;20055;-83
2023/02/14 11:23:16;;;;;;;1.05;1.05;;;;;;;11.22;63.59;103415.00;5105749;28;20039;-83
2023/02/14 11:25:51;;;;;;;0.30;0.30;;;;;;;11.42;63.27;103403.88;5107118;28;20036;-83
2023/02/14 11:28:18;;;;;;;1.00;1.00;;;;;;;11.51;64.26;103401.38;5095636;28;20031;-84
2023/02/14 11:30:47;;;;;;;1.10;1.10;;;;;;;11.59;63.13;103406.78;5095018;28;20042;-84
2023/02/14 11:33:39;;;;;;;1.38;0.93;;;;;;;11.75;63.60;103392.94;5099582;28;20024;-84
2023/02/14 11:36:11;;;;;;;1.33;1.25;;;;;;;11.78;62.90;103394.75;5094822;28;20028;-84
2023/02/14 11:38:39;;;;;;;1.58;1.58;;;;;;;11.94;62.99;103394.09;5104573;28;20108;-85
2023/02/14 11:41:09;;;;;;;0.30;0.30;;;;;;;12.03;62.15;103389.84;5113208;28;20092;-85
2023/02/14 11:43:39;;;;;;;1.23;1.13;;;;;;;12.22;63.13;103391.88;5102188;28;20027;-84
2023/02/14 11:49:01;;;;;;;2.38;0.95;;;;;;;12.41;61.30;103378.81;5109518;27;20945;-82
2023/02/14 11:51:32;;;;;;;0.98;0.98;;;;;;;12.46;62.84;103374.47;5110486;28;20462;-84
2023/02/14 11:54:03;;;;;;;1.90;1.70;;;;;;;12.57;61.15;103370.19;5096363;28;20099;-85
2023/02/14 11:56:52;;;;;;;0.85;0.85;;;;;;;12.75;60.62;103365.97;5088814;28;20020;-84
2023/02/14 11:59:27;;;;;;;0.55;0.55;;;;;;;12.74;61.39;103357.06;5084406;28;20028;-84
2023/02/14 12:01:55;;;;;;;1.58;1.45;;;;;;;12.83;59.64;103358.06;5087642;28;20028;-83
2023/02/14 12:05:22;;;;;;;2.03;0.98;;;;;;;12.99;60.14;103348.47;5087134;28;20036;-81
2023/02/14 12:07:55;;;;;;;1.95;1.85;;;;;;;12.99;58.25;103340.50;5034873;28;20056;-88
2023/02/14 12:32:22;;;;;;;3.70;2.65;;;;;;;13.85;58.03;103325.22;5086885;27;20413;-85
2023/02/14 12:34:50;;;;;;;0.20;0.20;;;;;;;13.91;56.84;103317.25;5086219;28;20047;-84
2023/02/14 12:37:28;;;;;;;1.38;1.33;;;;;;;13.97;56.00;103320.84;5070763;28;20088;-86
2023/02/14 12:42:56;;;;;;;0.20;0.20;;;;;;;14.15;55.28;103310.28;5090582;27;1183737;-85
2023/02/14 12:45:43;;;;;;;0.90;0.90;;;;;;;14.21;56.11;103310.28;5109021;28;20112;-85
2023/02/14 12:48:49;;;;;;;1.65;1.17;;;;;;;14.34;56.79;103302.34;5096459;28;20024;-84
2023/02/14 12:57:27;;;;;;;0.75;0.75;;;;;;;14.51;54.75;103286.41;5123372;27;20372;-85
2023/02/14 13:14:56;;;;;;;0.20;0.20;;;;;;;14.80;51.94;103267.78;5113349;27;1163538;-84
2023/02/14 13:22:40;;;;;;;2.28;2.17;;;;;;;14.93;53.66;103258.03;5086506;27;1759068;-86
2023/02/14 13:28:01;;;;;;;1.20;1.10;;;;;;;15.00;53.29;103253.59;5077327;28;20361;-86
2023/02/14 13:30:31;;;;;;;1.98;1.95;;;;;;;15.00;51.46;103245.56;5065871;28;20029;-83
2023/02/14 13:33:05;;;;;;;2.28;1.27;;;;;;;15.09;52.91;103244.69;5066237;28;20055;-85
2023/02/14 13:35:32;;;;;;;1.50;1.40;;;;;;;15.14;53.11;103245.56;5072836;28;20487;-85
2023/02/14 13:38:04;;;;;;;2.25;0.75;;;;;;;15.15;51.51;103234.91;5073324;28;20504;-84
2023/02/14 13:40:37;;;;;;;1.08;1.08;;;;;;;15.17;50.60;103234.88;5067679;28;20088;-85
2023/02/14 13:43:03;;;;;;;2.75;1.38;;;;;;;15.17;52.18;103226.88;5072833;28;20024;-84
2023/02/14 13:51:11;;;;;;;0.40;0.40;;;;;;;15.40;51.76;103216.13;5092140;28;20403;-84
2023/02/14 13:53:47;;;;;;;1.17;0.77;;;;;;;15.41;51.93;103217.03;5061501;28;20053;-83
2023/02/14 13:58:58;;;;;;;2.47;0.95;;;;;;;15.44;50.28;103215.25;5089808;28;20472;-83
2023/02/14 14:09:53;;;;;;;1.75;1.08;;;;;;;15.41;50.16;103217.94;5081213;27;20416;-85
2023/02/14 14:20:48;;;;;;;2.00;1.83;;;;;;;15.44;48.85;103217.03;5098675;27;1299660;-83